createdAt,value
2023-04-28T00:01:42.486Z,11.32
2023-04-28T00:04:09.699Z,11.31
2023-04-28T00:06:37.501Z,11.30
2023-04-28T00:09:04.418Z,11.32
2023-04-28T00:11:31.273Z,11.36
2023-04-28T00:13:58.150Z,11.34
2023-04-28T00:16:25.074Z,11.34
2023-04-28T00:18:52.327Z,11.28
2023-04-28T00:21:19.252Z,11.29
2023-04-28T00:23:46.525Z,11.30
2023-04-28T00:26:13.448Z,11.31
2023-04-28T00:28:40.513Z,11.26
2023-04-28T00:31:12.861Z,11.10
2023-04-28T00:33:41.022Z,11.01
2023-04-28T00:36:08.692Z,11.01
2023-04-28T00:38:35.930Z,11.07
2023-04-28T00:41:02.893Z,11.06
2023-04-28T00:43:29.923Z,10.93
2023-04-28T00:45:56.981Z,10.78
2023-04-28T00:48:27.390Z,10.61
2023-04-28T00:50:54.804Z,10.50
2023-04-28T00:53:21.773Z,10.49
2023-04-28T00:55:48.711Z,10.48
2023-04-28T00:58:16.043Z,10.53
2023-04-28T01:00:43.120Z,10.64
2023-04-28T01:03:10.166Z,10.76
2023-04-28T01:05:37.286Z,10.87
2023-04-28T01:08:05.128Z,10.91
2023-04-28T01:10:32.066Z,10.94
2023-04-28T01:12:59.026Z,10.96
2023-04-28T01:15:25.939Z,11.05
2023-04-28T01:17:52.934Z,11.10
2023-04-28T01:20:20.072Z,11.08
2023-04-28T01:22:47.002Z,11.04
2023-04-28T01:25:14.037Z,11.04
2023-04-28T01:27:40.874Z,11.09
2023-04-28T01:30:09.195Z,11.14
2023-04-28T01:32:36.490Z,11.15
2023-04-28T01:35:03.975Z,11.14
2023-04-28T01:37:31.425Z,11.21
2023-04-28T01:39:58.269Z,11.24
2023-04-28T01:42:25.370Z,11.26
2023-04-28T01:44:52.274Z,11.23
2023-04-28T01:47:20.464Z,11.18
2023-04-28T01:49:48.647Z,11.16
2023-04-28T01:52:15.938Z,11.13
2023-04-28T01:54:42.985Z,11.16
2023-04-28T01:57:10.150Z,11.17
2023-04-28T01:59:37.023Z,11.18
2023-04-28T02:02:03.977Z,11.25
2023-04-28T02:04:31.086Z,11.27
2023-04-28T02:06:58.968Z,11.18
2023-04-28T02:09:25.976Z,10.98
2023-04-28T02:11:52.848Z,10.90
2023-04-28T02:14:19.742Z,10.88
2023-04-28T02:16:46.706Z,10.80
2023-04-28T02:19:14.039Z,10.84
2023-04-28T02:21:42.470Z,10.95
2023-04-28T02:24:09.370Z,11.05
2023-04-28T02:26:36.426Z,11.10
2023-04-28T02:29:06.498Z,11.05
2023-04-28T02:31:33.666Z,11.01
2023-04-28T02:34:00.576Z,10.97
2023-04-28T02:36:28.287Z,10.88
2023-04-28T02:38:55.122Z,10.87
2023-04-28T02:41:23.454Z,10.84
2023-04-28T02:43:50.738Z,10.95
2023-04-28T02:46:17.741Z,11.05
2023-04-28T02:48:44.770Z,11.08
2023-04-28T02:51:12.014Z,11.09
2023-04-28T02:53:39.170Z,11.16
2023-04-28T02:56:06.631Z,11.21
2023-04-28T02:58:33.581Z,11.21
2023-04-28T03:01:00.847Z,11.20
2023-04-28T03:03:27.860Z,11.24
2023-04-28T03:05:57.135Z,11.17
2023-04-28T03:08:24.219Z,11.13
2023-04-28T03:10:51.367Z,11.17
2023-04-28T03:13:18.298Z,11.10
2023-04-28T03:15:45.187Z,11.14
2023-04-28T03:18:12.207Z,11.23
2023-04-28T03:20:39.070Z,11.34
2023-04-28T03:23:05.952Z,11.45
2023-04-28T03:25:33.075Z,11.53
2023-04-28T03:27:59.912Z,11.56
2023-04-28T03:30:26.836Z,11.53
2023-04-28T03:32:53.820Z,11.38
2023-04-28T03:35:20.730Z,11.24
2023-04-28T03:37:47.717Z,11.15
2023-04-28T03:40:14.728Z,11.18
2023-04-28T03:42:41.688Z,11.20
2023-04-28T03:45:09.365Z,11.20
2023-04-28T03:47:36.406Z,11.22
2023-04-28T03:50:03.629Z,11.30
2023-04-28T03:52:31.309Z,11.61
2023-04-28T03:54:58.315Z,12.08
2023-04-28T03:57:25.479Z,12.20
2023-04-28T03:59:52.442Z,12.81
2023-04-28T04:02:19.476Z,12.70
2023-04-28T04:04:46.900Z,12.78
2023-04-28T04:07:14.474Z,12.62
2023-04-28T04:09:42.207Z,12.45
2023-04-28T04:12:09.241Z,12.38
2023-04-28T04:14:36.232Z,12.45
2023-04-28T04:17:03.201Z,12.36
2023-04-28T04:19:30.079Z,12.31
2023-04-28T04:21:57.052Z,12.38
2023-04-28T04:24:24.010Z,12.14
2023-04-28T04:26:50.989Z,11.89
2023-04-28T04:29:17.976Z,11.74
2023-04-28T04:31:46.034Z,11.68
2023-04-28T04:34:13.525Z,11.78
2023-04-28T04:36:40.500Z,11.80
2023-04-28T04:39:07.459Z,11.96
2023-04-28T04:41:34.275Z,12.33
2023-04-28T04:44:01.510Z,13.34
2023-04-28T04:46:28.482Z,14.32
2023-04-28T04:48:55.485Z,14.93
2023-04-28T04:51:23.037Z,14.33
2023-04-28T04:53:49.903Z,13.74
2023-04-28T04:56:17.190Z,13.40
2023-04-28T04:58:47.101Z,13.20
2023-04-28T05:01:13.959Z,13.41
2023-04-28T05:03:41.355Z,13.76
2023-04-28T05:06:08.524Z,13.97
2023-04-28T05:08:35.417Z,14.42
2023-04-28T05:11:02.349Z,14.77
2023-04-28T05:13:29.217Z,14.91
2023-04-28T05:15:56.289Z,14.50
2023-04-28T05:18:23.235Z,14.24
2023-04-28T05:20:50.285Z,13.99
2023-04-28T05:23:17.263Z,13.94
2023-04-28T05:25:44.373Z,13.93
2023-04-28T05:28:11.290Z,13.76
2023-04-28T05:30:38.168Z,13.60
2023-04-28T05:33:05.243Z,13.57
2023-04-28T05:35:32.220Z,13.69
2023-04-28T05:37:59.582Z,13.77
2023-04-28T05:40:27.964Z,13.88
2023-04-28T05:42:54.849Z,13.99
2023-04-28T05:45:21.823Z,13.92
2023-04-28T05:47:48.691Z,13.86
2023-04-28T05:50:15.879Z,13.66
2023-04-28T05:52:42.920Z,13.39
2023-04-28T05:55:10.345Z,13.22
2023-04-28T05:57:45.656Z,13.11
2023-04-28T06:00:19.969Z,12.90
2023-04-28T06:02:47.014Z,12.82
2023-04-28T06:05:14.538Z,12.88
2023-04-28T06:07:41.771Z,12.95
2023-04-28T06:10:09.313Z,12.89
2023-04-28T06:12:37.117Z,12.75
2023-04-28T06:15:05.655Z,12.83
2023-04-28T06:17:33.920Z,12.97
2023-04-28T06:20:00.827Z,13.24
2023-04-28T06:22:27.769Z,13.56
2023-04-28T06:24:54.629Z,13.70
2023-04-28T06:27:21.559Z,14.08
2023-04-28T06:29:48.513Z,14.35
2023-04-28T06:32:15.679Z,14.50
2023-04-28T06:34:42.739Z,14.49
2023-04-28T06:37:09.665Z,14.33
2023-04-28T06:39:36.673Z,14.21
2023-04-28T06:42:04.301Z,14.11
2023-04-28T06:44:31.230Z,13.95
2023-04-28T06:46:58.259Z,13.97
2023-04-28T06:49:25.311Z,13.99
2023-04-28T06:51:52.313Z,13.98
2023-04-28T06:54:19.462Z,14.01
2023-04-28T06:56:46.662Z,13.96
2023-04-28T06:59:13.808Z,13.97
2023-04-28T07:01:40.849Z,13.98
2023-04-28T07:04:07.879Z,13.98
2023-04-28T07:06:35.253Z,14.14
2023-04-28T07:09:02.166Z,14.15
2023-04-28T07:11:29.093Z,14.07
2023-04-28T07:13:56.000Z,14.11
2023-04-28T07:16:22.928Z,14.07
2023-04-28T07:18:49.783Z,13.98
2023-04-28T07:21:16.836Z,13.96
2023-04-28T07:23:43.914Z,13.87
2023-04-28T07:26:11.787Z,13.69
2023-04-28T07:28:39.423Z,13.56
2023-04-28T07:31:06.366Z,13.52
2023-04-28T07:33:33.557Z,13.59
2023-04-28T07:36:00.667Z,13.50
2023-04-28T07:38:27.624Z,13.36
2023-04-28T07:40:54.533Z,13.15
2023-04-28T07:43:21.688Z,13.10
2023-04-28T07:45:49.761Z,13.19
2023-04-28T07:48:16.845Z,13.33
2023-04-28T07:50:43.864Z,13.41
2023-04-28T07:53:10.882Z,13.58
2023-04-28T07:55:37.867Z,13.59
2023-04-28T07:58:04.826Z,13.68
2023-04-28T08:00:31.823Z,13.65
2023-04-28T08:02:58.879Z,13.51
2023-04-28T08:05:26.105Z,13.45
2023-04-28T08:07:53.351Z,13.50
2023-04-28T08:10:20.656Z,13.25
2023-04-28T08:12:47.714Z,13.15
2023-04-28T08:15:15.573Z,13.43
2023-04-28T08:17:43.408Z,13.77
2023-04-28T08:20:11.080Z,13.86
2023-04-28T08:22:37.924Z,13.79
2023-04-28T08:25:05.245Z,13.60
2023-04-28T08:27:32.794Z,13.52
2023-04-28T08:29:59.864Z,13.58
2023-04-28T08:32:26.845Z,13.58
2023-04-28T08:34:54.011Z,13.57
2023-04-28T08:37:20.865Z,13.58
2023-04-28T08:39:47.889Z,13.54
2023-04-28T08:42:14.977Z,13.68
2023-04-28T08:44:42.115Z,13.67
2023-04-28T08:47:13.880Z,13.39
2023-04-28T08:49:40.980Z,13.26
2023-04-28T08:52:12.758Z,13.43
2023-04-28T08:54:43.442Z,13.67
2023-04-28T08:57:11.019Z,13.77
2023-04-28T08:59:41.409Z,13.95
2023-04-28T09:02:11.684Z,14.03
2023-04-28T09:04:39.400Z,14.10
2023-04-28T09:07:13.334Z,14.27
2023-04-28T09:09:41.514Z,14.58
2023-04-28T09:12:09.636Z,14.82
2023-04-28T09:14:37.606Z,15.20
2023-04-28T09:17:17.310Z,15.58
2023-04-28T09:19:49.642Z,16.00
2023-04-28T09:22:25.608Z,16.42
2023-04-28T09:24:53.836Z,16.61
2023-04-28T09:27:30.312Z,16.41
2023-04-28T09:29:57.431Z,16.44
2023-04-28T09:32:26.346Z,16.20
2023-04-28T09:34:57.669Z,15.72
2023-04-28T09:37:31.178Z,15.32
2023-04-28T09:40:04.836Z,15.10
2023-04-28T09:42:43.510Z,14.95
2023-04-28T09:45:15.126Z,14.89
2023-04-28T09:47:47.144Z,14.84
2023-04-28T09:50:18.860Z,14.74
2023-04-28T09:52:57.521Z,14.65
2023-04-28T09:55:32.487Z,14.67
2023-04-28T09:58:00.962Z,14.59
2023-04-28T10:00:32.284Z,14.53
2023-04-28T10:03:00.138Z,14.58
2023-04-28T10:05:30.011Z,14.81
2023-04-28T10:07:57.560Z,14.99
2023-04-28T10:10:25.950Z,15.12
2023-04-28T10:12:53.137Z,15.64
2023-04-28T10:15:20.220Z,16.12
2023-04-28T10:17:48.465Z,16.55
2023-04-28T10:20:16.335Z,16.96
2023-04-28T10:23:08.250Z,17.43
2023-04-28T10:25:36.582Z,17.60
2023-04-28T10:28:07.839Z,17.73
2023-04-28T10:30:35.583Z,17.84
2023-04-28T10:33:15.192Z,17.93
2023-04-28T10:35:46.078Z,17.99
2023-04-28T10:38:15.051Z,17.86
2023-04-28T10:40:43.196Z,18.20
2023-04-28T10:43:11.534Z,18.19
2023-04-28T10:45:58.039Z,18.33
2023-04-28T10:48:35.002Z,18.52
2023-04-28T10:51:05.786Z,18.63
2023-04-28T10:53:53.903Z,18.40
2023-04-28T10:56:25.845Z,18.37
2023-04-28T10:58:53.726Z,18.62
2023-04-28T11:01:30.058Z,18.58
2023-04-28T11:04:17.180Z,18.49
2023-04-28T11:06:48.107Z,18.48
2023-04-28T11:09:21.444Z,18.55
2023-04-28T11:12:00.769Z,18.95
2023-04-28T11:14:30.984Z,19.01
2023-04-28T11:17:05.312Z,19.33
2023-04-28T11:19:33.776Z,19.52
2023-04-28T11:22:03.070Z,19.58
2023-04-28T11:24:31.841Z,19.73
2023-04-28T11:26:59.493Z,20.08
2023-04-28T11:29:38.105Z,20.31
2023-04-28T11:32:06.806Z,20.69
2023-04-28T11:34:51.996Z,20.88
2023-04-28T11:37:21.309Z,21.02
2023-04-28T11:39:48.620Z,21.22
2023-04-28T11:42:15.726Z,21.39
2023-04-28T11:44:53.296Z,21.36
2023-04-28T11:47:37.318Z,21.31
2023-04-28T11:50:04.794Z,21.32
2023-04-28T11:52:31.869Z,21.32
2023-04-28T11:55:01.417Z,21.29
2023-04-28T11:57:29.601Z,21.22
2023-04-28T12:00:22.508Z,21.06
2023-04-28T12:02:49.826Z,21.14
2023-04-28T12:05:20.068Z,21.03
2023-04-28T12:07:47.210Z,20.77
2023-04-28T12:10:17.474Z,20.45
2023-04-28T12:12:51.727Z,20.31
2023-04-28T12:15:22.695Z,20.22
2023-04-28T12:17:53.840Z,20.28
2023-04-28T12:20:39.085Z,20.47
2023-04-28T12:23:07.080Z,20.75
2023-04-28T12:25:44.270Z,21.01
2023-04-28T12:28:11.752Z,20.91
2023-04-28T12:30:44.904Z,20.96
2023-04-28T12:33:28.164Z,21.12
2023-04-28T12:36:34.286Z,21.28
2023-04-28T12:39:03.088Z,21.35
2023-04-28T12:41:53.702Z,21.20
2023-04-28T12:44:27.580Z,20.72
2023-04-28T12:46:55.448Z,20.53
2023-04-28T12:49:28.249Z,20.39
2023-04-28T12:52:03.565Z,20.37
2023-04-28T12:54:31.059Z,20.35
2023-04-28T12:56:58.369Z,20.36
2023-04-28T12:59:25.585Z,20.42
2023-04-28T13:01:53.030Z,20.52
2023-04-28T13:04:20.625Z,20.71
2023-04-28T13:06:54.974Z,20.70
2023-04-28T13:09:25.371Z,20.82
2023-04-28T13:11:54.094Z,20.83
2023-04-28T13:14:22.391Z,21.11
2023-04-28T13:16:49.749Z,21.58
2023-04-28T13:19:17.731Z,21.87
2023-04-28T13:21:47.324Z,22.03
2023-04-28T13:24:14.457Z,22.19
2023-04-28T13:26:41.610Z,22.22
2023-04-28T13:29:09.629Z,22.26
2023-04-28T13:31:36.791Z,22.26
2023-04-28T13:34:05.483Z,22.29
2023-04-28T13:36:35.212Z,22.35
2023-04-28T13:39:02.670Z,22.47
2023-04-28T13:41:29.800Z,22.54
2023-04-28T13:43:58.836Z,22.68
2023-04-28T13:46:25.851Z,22.65
2023-04-28T13:48:52.851Z,22.45
2023-04-28T13:51:19.861Z,22.31
2023-04-28T13:53:46.853Z,22.18
2023-04-28T13:56:13.801Z,22.21
2023-04-28T13:58:41.310Z,22.27
2023-04-28T14:01:08.347Z,22.29
2023-04-28T14:03:36.310Z,22.38
2023-04-28T14:06:03.258Z,22.42
2023-04-28T14:08:30.249Z,22.33
2023-04-28T14:10:57.231Z,22.25
2023-04-28T14:13:25.327Z,22.28
2023-04-28T14:15:59.020Z,22.38
2023-04-28T14:18:26.481Z,22.30
2023-04-28T14:20:54.770Z,22.24
2023-04-28T14:23:22.885Z,22.04
2023-04-28T14:25:50.695Z,21.98
2023-04-28T14:28:17.693Z,21.96
2023-04-28T14:30:44.861Z,21.97
2023-04-28T14:33:13.036Z,22.12
2023-04-28T14:35:40.106Z,22.08
2023-04-28T14:38:07.096Z,21.99
2023-04-28T14:40:34.000Z,21.86
2023-04-28T14:43:01.037Z,21.92
2023-04-28T14:45:28.094Z,21.95
2023-04-28T14:47:54.971Z,21.93
2023-04-28T14:50:21.942Z,21.96
2023-04-28T14:52:48.907Z,22.05
2023-04-28T14:55:16.119Z,22.25
2023-04-28T14:57:43.143Z,22.39
2023-04-28T15:00:10.658Z,22.47
2023-04-28T15:02:37.846Z,22.52
2023-04-28T15:05:06.290Z,22.59
2023-04-28T15:07:33.446Z,22.64
2023-04-28T15:10:00.779Z,22.64
2023-04-28T15:12:30.764Z,22.61
2023-04-28T15:14:58.585Z,22.60
2023-04-28T15:17:25.666Z,22.66
2023-04-28T15:19:52.703Z,22.68
2023-04-28T15:22:19.690Z,22.52
2023-04-28T15:24:46.863Z,22.61
2023-04-28T15:27:13.895Z,22.71
2023-04-28T15:29:40.967Z,22.80
2023-04-28T15:32:07.964Z,22.84
2023-04-28T15:34:35.297Z,22.85
2023-04-28T15:37:02.274Z,22.83
2023-04-28T15:39:29.186Z,22.79
2023-04-28T15:41:56.385Z,22.75
2023-04-28T15:44:23.356Z,22.85
2023-04-28T15:46:52.138Z,22.79
2023-04-28T15:49:19.153Z,22.82
2023-04-28T15:51:46.322Z,22.80
2023-04-28T15:54:13.177Z,22.75
2023-04-28T15:56:40.078Z,22.58
2023-04-28T15:59:07.040Z,22.46
2023-04-28T16:01:34.147Z,22.54
2023-04-28T16:04:01.814Z,22.63
2023-04-28T16:06:30.439Z,22.50
2023-04-28T16:08:57.383Z,22.54
2023-04-28T16:11:24.870Z,22.51
2023-04-28T16:13:51.775Z,22.34
2023-04-28T16:16:18.762Z,22.22
2023-04-28T16:18:45.950Z,22.17
2023-04-28T16:21:16.820Z,22.07
2023-04-28T16:23:43.813Z,22.00
2023-04-28T16:26:10.913Z,22.02
2023-04-28T16:28:37.861Z,21.93
2023-04-28T16:31:05.068Z,21.98
2023-04-28T16:33:32.020Z,22.12
2023-04-28T16:35:59.993Z,22.27
2023-04-28T16:38:26.821Z,22.36
2023-04-28T16:40:53.764Z,22.37
2023-04-28T16:43:21.269Z,22.37
2023-04-28T16:45:48.200Z,22.43
2023-04-28T16:48:16.235Z,22.37
2023-04-28T16:50:43.246Z,22.37
2023-04-28T16:53:10.942Z,22.28
2023-04-28T16:55:37.940Z,22.16
2023-04-28T16:58:04.905Z,22.15
2023-04-28T17:00:33.005Z,22.07
2023-04-28T17:03:00.137Z,21.97
2023-04-28T17:05:27.627Z,21.78
2023-04-28T17:07:55.466Z,21.76
2023-04-28T17:10:22.818Z,21.74
2023-04-28T17:12:49.955Z,21.68
2023-04-28T17:15:20.266Z,21.58
2023-04-28T17:17:49.755Z,21.39
2023-04-28T17:20:20.300Z,21.33
2023-04-28T17:22:48.939Z,21.27
2023-04-28T17:25:17.028Z,21.26
2023-04-28T17:27:43.938Z,21.24
2023-04-28T17:30:11.822Z,20.99
2023-04-28T17:32:38.778Z,20.81
2023-04-28T17:35:06.253Z,20.82
2023-04-28T17:37:33.840Z,20.80
2023-04-28T17:40:01.756Z,20.80
2023-04-28T17:42:34.233Z,20.68
2023-04-28T17:45:01.302Z,20.56
2023-04-28T17:47:28.355Z,20.50
2023-04-28T17:49:57.111Z,20.43
2023-04-28T17:52:24.109Z,20.34
2023-04-28T17:54:51.303Z,20.11
2023-04-28T17:57:19.058Z,20.05
2023-04-28T17:59:50.988Z,19.86
2023-04-28T18:02:20.838Z,19.67
2023-04-28T18:04:49.308Z,19.55
2023-04-28T18:07:16.595Z,19.48
2023-04-28T18:09:43.548Z,19.38
2023-04-28T18:12:10.530Z,19.33
2023-04-28T18:14:37.494Z,19.25
2023-04-28T18:17:04.473Z,19.15
2023-04-28T18:19:31.415Z,19.12
2023-04-28T18:21:58.345Z,19.08
2023-04-28T18:24:25.285Z,19.02
2023-04-28T18:26:52.135Z,18.89
2023-04-28T18:29:20.507Z,18.77
2023-04-28T18:31:47.727Z,18.65
2023-04-28T18:34:14.678Z,18.57
2023-04-28T18:36:41.859Z,18.41
2023-04-28T18:39:09.255Z,18.29
2023-04-28T18:41:36.629Z,18.21
2023-04-28T18:44:03.772Z,18.06
2023-04-28T18:46:30.981Z,17.90
2023-04-28T18:48:58.326Z,17.82
2023-04-28T18:51:25.525Z,17.71
2023-04-28T18:53:52.437Z,17.62
2023-04-28T18:56:22.089Z,17.54
2023-04-28T18:58:49.030Z,17.42
2023-04-28T19:01:17.155Z,17.27
2023-04-28T19:03:44.929Z,17.15
2023-04-28T19:06:12.270Z,17.03
2023-04-28T19:08:39.445Z,16.89
2023-04-28T19:11:07.634Z,16.89
2023-04-28T19:13:35.844Z,16.78
2023-04-28T19:16:03.075Z,16.76
2023-04-28T19:18:31.453Z,16.70
2023-04-28T19:21:03.070Z,16.60
2023-04-28T19:23:30.722Z,16.37
2023-04-28T19:25:58.787Z,16.30
2023-04-28T19:28:26.637Z,16.19
2023-04-28T19:30:54.212Z,16.07
2023-04-28T19:33:24.897Z,15.97
2023-04-28T19:35:56.500Z,15.82
2023-04-28T19:38:23.875Z,15.75
2023-04-28T19:40:51.287Z,15.76
2023-04-28T19:43:18.449Z,15.76
2023-04-28T19:45:47.077Z,15.93
2023-04-28T19:48:15.083Z,16.12
2023-04-28T19:50:42.388Z,16.31
2023-04-28T19:53:09.598Z,16.46
2023-04-28T19:55:37.076Z,16.56
2023-04-28T19:58:04.294Z,16.52
2023-04-28T20:00:32.491Z,16.58
2023-04-28T20:03:00.557Z,16.60
2023-04-28T20:05:29.010Z,16.62
2023-04-28T20:07:56.514Z,16.50
2023-04-28T20:10:24.248Z,16.13
2023-04-28T20:12:51.367Z,15.93
2023-04-28T20:15:18.779Z,15.76
2023-04-28T20:17:46.452Z,15.58
2023-04-28T20:20:13.540Z,15.38
2023-04-28T20:22:43.393Z,15.24
2023-04-28T20:25:11.189Z,15.14
2023-04-28T20:27:38.033Z,15.14
2023-04-28T20:30:05.647Z,15.16
2023-04-28T20:32:32.802Z,15.02
2023-04-28T20:34:59.805Z,14.91
2023-04-28T20:37:26.680Z,14.73
2023-04-28T20:39:53.680Z,14.58
2023-04-28T20:42:20.687Z,14.47
2023-04-28T20:44:47.694Z,14.31
2023-04-28T20:47:14.829Z,14.25
2023-04-28T20:49:42.221Z,14.17
2023-04-28T20:52:09.339Z,14.03
2023-04-28T20:54:36.632Z,13.90
2023-04-28T20:57:04.857Z,13.90
2023-04-28T20:59:33.060Z,13.96
2023-04-28T21:02:00.699Z,13.95
2023-04-28T21:04:28.569Z,13.94
2023-04-28T21:06:55.787Z,13.95
2023-04-28T21:09:25.510Z,13.94
2023-04-28T21:11:52.917Z,13.95
2023-04-28T21:14:20.468Z,13.88
2023-04-28T21:16:47.474Z,13.87
2023-04-28T21:19:14.420Z,13.85
2023-04-28T21:21:42.198Z,13.74
2023-04-28T21:24:10.568Z,13.51
2023-04-28T21:26:37.430Z,13.33
2023-04-28T21:29:04.383Z,13.24
2023-04-28T21:31:31.450Z,13.21
2023-04-28T21:33:58.341Z,13.15
2023-04-28T21:36:25.351Z,13.09
2023-04-28T21:38:52.326Z,12.98
2023-04-28T21:41:19.248Z,12.91
2023-04-28T21:43:46.171Z,12.85
2023-04-28T21:46:13.521Z,12.76
2023-04-28T21:48:40.696Z,12.72
2023-04-28T21:51:07.595Z,12.70
2023-04-28T21:53:34.503Z,12.68
2023-04-28T21:56:01.421Z,12.63
2023-04-28T21:58:28.273Z,12.63
2023-04-28T22:00:55.247Z,12.63
2023-04-28T22:03:22.500Z,12.64
2023-04-28T22:05:49.705Z,12.67
2023-04-28T22:08:17.283Z,12.67
2023-04-28T22:10:45.718Z,12.63
2023-04-28T22:13:13.303Z,12.64
2023-04-28T22:15:40.454Z,12.55
2023-04-28T22:18:08.654Z,12.48
2023-04-28T22:20:36.107Z,12.46
2023-04-28T22:23:02.933Z,12.41
2023-04-28T22:25:29.793Z,12.39
2023-04-28T22:27:56.899Z,12.32
2023-04-28T22:30:25.985Z,12.30
2023-04-28T22:32:53.635Z,12.26
2023-04-28T22:35:20.630Z,12.23
2023-04-28T22:37:47.608Z,12.22
2023-04-28T22:40:14.601Z,12.25
2023-04-28T22:42:43.043Z,12.38
2023-04-28T22:45:10.920Z,12.36
2023-04-28T22:47:39.258Z,12.35
2023-04-28T22:50:08.908Z,12.27
2023-04-28T22:52:36.152Z,12.00
2023-04-28T22:55:03.224Z,11.79
2023-04-28T22:57:30.396Z,11.79
2023-04-28T22:59:57.349Z,11.84
2023-04-28T23:02:25.125Z,11.98
2023-04-28T23:04:52.513Z,12.10
2023-04-28T23:07:19.689Z,12.18
2023-04-28T23:09:46.738Z,12.14
2023-04-28T23:12:13.561Z,12.11
2023-04-28T23:14:40.458Z,12.18
2023-04-28T23:17:07.360Z,12.19
2023-04-28T23:19:39.524Z,12.23
2023-04-28T23:22:07.910Z,12.25
2023-04-28T23:24:37.096Z,12.28
2023-04-28T23:27:04.874Z,12.25
2023-04-28T23:29:32.328Z,12.20
2023-04-28T23:31:59.682Z,12.07
2023-04-28T23:34:26.870Z,12.05
2023-04-28T23:36:53.759Z,12.06
2023-04-28T23:39:20.827Z,12.08
2023-04-28T23:41:47.813Z,12.13
2023-04-28T23:44:14.810Z,12.17
2023-04-28T23:46:41.829Z,12.20
2023-04-28T23:49:08.725Z,12.19
2023-04-28T23:51:36.752Z,12.17
2023-04-28T23:54:04.016Z,12.09
2023-04-28T23:56:31.929Z,11.98
2023-04-28T23:58:59.078Z,11.94
